sensor_id;sensor_type;location;lat;lon;timestamp;P1;durP1;ratioP1;P2;durP2;ratioP2
76098;SDS011;64828;49.956;8.636;2023-04-01T00:00:15;4.43;;;1.30;;
76098;SDS011;64828;49.956;8.636;2023-04-01T00:00:31;5.78;;;1.65;;
76098;SDS011;64828;49.956;8.636;2023-04-01T00:00:47;4.60;;;1.37;;
76098;SDS011;64828;49.956;8.636;2023-04-01T00:01:03;3.70;;;1.37;;
76098;SDS011;64828;49.956;8.636;2023-04-01T00:01:20;4.20;;;1.70;;
76098;SDS011;64828;49.956;8.636;2023-04-01T00:01:36;3.58;;;1.50;;
76098;SDS011;64828;49.956;8.636;2023-04-01T00:01:52;4.50;;;1.50;;
76098;SDS011;64828;49.956;8.636;2023-04-01T00:02:07;6.20;;;1.87;;
76098;SDS011;64828;49.956;8.636;2023-04-01T00:02:23;5.20;;;2.00;;
76098;SDS011;64828;49.956;8.636;2023-04-01T00:02:38;6.87;;;1.97;;
76098;SDS011;64828;49.956;8.636;2023-04-01T00:02:55;6.90;;;1.95;;
76098;SDS011;64828;49.956;8.636;2023-04-01T00:03:11;5.15;;;2.13;;
76098;SDS011;64828;49.956;8.636;2023-04-01T00:03:26;5.20;;;2.00;;
76098;SDS011;64828;49.956;8.636;2023-04-01T00:03:44;5.00;;;2.20;;
76098;SDS011;64828;49.956;8.636;2023-04-01T00:04:00;5.75;;;2.55;;
76098;SDS011;64828;49.956;8.636;2023-04-01T00:04:17;6.72;;;2.97;;
76098;SDS011;64828;49.956;8.636;2023-04-01T00:04:32;5.72;;;2.70;;
76098;SDS011;64828;49.956;8.636;2023-04-01T00:04:48;4.75;;;2.13;;
76098;SDS011;64828;49.956;8.636;2023-04-01T00:05:04;5.68;;;1.98;;
76098;SDS011;64828;49.956;8.636;2023-04-01T00:05:20;4.78;;;1.73;;
76098;SDS011;64828;49.956;8.636;2023-04-01T00:05:36;3.53;;;1.30;;
76098;SDS011;64828;49.956;8.636;2023-04-01T00:05:52;4.13;;;1.40;;
76098;SDS011;64828;49.956;8.636;2023-04-01T00:06:10;4.57;;;1.70;;
76098;SDS011;64828;49.956;8.636;2023-04-01T00:06:29;4.55;;;1.20;;
76098;SDS011;64828;49.956;8.636;2023-04-01T00:06:45;3.88;;;1.60;;
76098;SDS011;64828;49.956;8.636;2023-04-01T00:07:02;3.90;;;1.70;;
76098;SDS011;64828;49.956;8.636;2023-04-01T00:07:18;3.63;;;1.40;;
76098;SDS011;64828;49.956;8.636;2023-04-01T00:07:33;3.78;;;1.50;;
76098;SDS011;64828;49.956;8.636;2023-04-01T00:07:49;3.97;;;1.60;;
76098;SDS011;64828;49.956;8.636;2023-04-01T00:08:05;2.73;;;1.30;;
76098;SDS011;64828;49.956;8.636;2023-04-01T00:08:20;4.53;;;1.60;;
76098;SDS011;64828;49.956;8.636;2023-04-01T00:08:37;5.13;;;1.90;;
76098;SDS011;64828;49.956;8.636;2023-04-01T00:08:52;4.97;;;1.87;;
76098;SDS011;64828;49.956;8.636;2023-04-01T00:09:08;4.88;;;1.58;;
76098;SDS011;64828;49.956;8.636;2023-04-01T00:09:23;4.47;;;1.20;;
76098;SDS011;64828;49.956;8.636;2023-04-01T00:09:39;3.30;;;1.10;;
76098;SDS011;64828;49.956;8.636;2023-04-01T00:09:55;3.17;;;1.10;;
76098;SDS011;64828;49.956;8.636;2023-04-01T00:10:11;5.35;;;1.45;;
76098;SDS011;64828;49.956;8.636;2023-04-01T00:10:28;5.00;;;1.73;;
76098;SDS011;64828;49.956;8.636;2023-04-01T00:10:43;4.63;;;1.63;;
76098;SDS011;64828;49.956;8.636;2023-04-01T00:11:00;3.92;;;1.70;;
76098;SDS011;64828;49.956;8.636;2023-04-01T00:11:16;3.50;;;1.45;;
76098;SDS011;64828;49.956;8.636;2023-04-01T00:11:32;4.05;;;1.40;;
76098;SDS011;64828;49.956;8.636;2023-04-01T00:11:48;4.00;;;1.45;;
76098;SDS011;64828;49.956;8.636;2023-04-01T00:12:04;3.80;;;1.33;;
76098;SDS011;64828;49.956;8.636;2023-04-01T00:12:19;4.43;;;1.40;;
76098;SDS011;64828;49.956;8.636;2023-04-01T00:12:35;4.80;;;1.47;;
76098;SDS011;64828;49.956;8.636;2023-04-01T00:12:52;4.93;;;1.60;;
76098;SDS011;64828;49.956;8.636;2023-04-01T00:13:08;4.87;;;1.50;;
76098;SDS011;64828;49.956;8.636;2023-04-01T00:13:24;3.15;;;1.45;;
76098;SDS011;64828;49.956;8.636;2023-04-01T00:13:41;2.58;;;1.23;;
76098;SDS011;64828;49.956;8.636;2023-04-01T00:13:57;3.25;;;1.17;;
76098;SDS011;64828;49.956;8.636;2023-04-01T00:14:13;3.47;;;1.17;;
76098;SDS011;64828;49.956;8.636;2023-04-01T00:14:28;2.83;;;1.13;;
76098;SDS011;64828;49.956;8.636;2023-04-01T00:14:44;3.58;;;1.40;;
76098;SDS011;64828;49.956;8.636;2023-04-01T00:15:00;4.68;;;1.70;;
76098;SDS011;64828;49.956;8.636;2023-04-01T00:15:18;4.10;;;1.80;;
76098;SDS011;64828;49.956;8.636;2023-04-01T00:15:34;5.97;;;2.43;;
76098;SDS011;64828;49.956;8.636;2023-04-01T00:15:50;7.35;;;2.45;;
76098;SDS011;64828;49.956;8.636;2023-04-01T00:16:07;5.10;;;1.85;;
76098;SDS011;64828;49.956;8.636;2023-04-01T00:16:23;5.45;;;2.03;;
76098;SDS011;64828;49.956;8.636;2023-04-01T00:16:39;6.40;;;2.53;;
76098;SDS011;64828;49.956;8.636;2023-04-01T00:16:55;6.33;;;2.70;;
76098;SDS011;64828;49.956;8.636;2023-04-01T00:17:11;6.72;;;2.40;;
76098;SDS011;64828;49.956;8.636;2023-04-01T00:17:27;6.50;;;2.00;;
76098;SDS011;64828;49.956;8.636;2023-04-01T00:17:42;6.75;;;2.15;;
76098;SDS011;64828;49.956;8.636;2023-04-01T00:17:58;5.43;;;2.00;;
76098;SDS011;64828;49.956;8.636;2023-04-01T00:18:14;3.72;;;1.63;;
76098;SDS011;64828;49.956;8.636;2023-04-01T00:18:30;4.93;;;1.73;;
76098;SDS011;64828;49.956;8.636;2023-04-01T00:18:46;5.50;;;2.10;;
76098;SDS011;64828;49.956;8.636;2023-04-01T00:19:02;4.70;;;1.95;;
76098;SDS011;64828;49.956;8.636;2023-04-01T00:19:18;5.47;;;1.73;;
76098;SDS011;64828;49.956;8.636;2023-04-01T00:19:33;6.88;;;2.40;;
76098;SDS011;64828;49.956;8.636;2023-04-01T00:19:49;8.07;;;2.67;;
76098;SDS011;64828;49.956;8.636;2023-04-01T00:20:05;6.50;;;1.90;;
76098;SDS011;64828;49.956;8.636;2023-04-01T00:20:22;4.68;;;1.70;;
76098;SDS011;64828;49.956;8.636;2023-04-01T00:20:43;5.47;;;2.15;;
76098;SDS011;64828;49.956;8.636;2023-04-01T00:21:03;5.85;;;1.98;;
76098;SDS011;64828;49.956;8.636;2023-04-01T00:21:19;6.80;;;2.30;;
76098;SDS011;64828;49.956;8.636;2023-04-01T00:21:37;6.50;;;2.42;;
76098;SDS011;64828;49.956;8.636;2023-04-01T00:21:52;6.13;;;1.88;;
76098;SDS011;64828;49.956;8.636;2023-04-01T00:22:08;4.07;;;1.57;;
76098;SDS011;64828;49.956;8.636;2023-04-01T00:22:26;3.85;;;1.35;;
76098;SDS011;64828;49.956;8.636;2023-04-01T00:22:42;3.65;;;1.20;;
76098;SDS011;64828;49.956;8.636;2023-04-01T00:22:57;4.50;;;1.42;;
76098;SDS011;64828;49.956;8.636;2023-04-01T00:23:13;5.50;;;1.83;;
76098;SDS011;64828;49.956;8.636;2023-04-01T00:23:30;4.38;;;1.85;;
76098;SDS011;64828;49.956;8.636;2023-04-01T00:23:46;4.55;;;2.08;;
76098;SDS011;64828;49.956;8.636;2023-04-01T00:24:02;4.40;;;2.00;;
76098;SDS011;64828;49.956;8.636;2023-04-01T00:24:18;6.32;;;2.25;;
76098;SDS011;64828;49.956;8.636;2023-04-01T00:24:34;6.70;;;2.43;;
76098;SDS011;64828;49.956;8.636;2023-04-01T00:24:50;4.38;;;1.90;;
76098;SDS011;64828;49.956;8.636;2023-04-01T00:25:06;3.92;;;1.50;;
76098;SDS011;64828;49.956;8.636;2023-04-01T00:25:22;4.55;;;1.63;;
76098;SDS011;64828;49.956;8.636;2023-04-01T00:25:38;4.15;;;1.58;;
76098;SDS011;64828;49.956;8.636;2023-04-01T00:25:54;4.63;;;1.50;;
76098;SDS011;64828;49.956;8.636;2023-04-01T00:26:09;5.78;;;1.80;;
76098;SDS011;64828;49.956;8.636;2023-04-01T00:26:26;6.13;;;2.03;;
76098;SDS011;64828;49.956;8.636;2023-04-01T00:26:42;5.87;;;2.10;;
76098;SDS011;64828;49.956;8.636;2023-04-01T00:26:59;4.55;;;2.05;;
76098;SDS011;64828;49.956;8.636;2023-04-01T00:27:15;4.15;;;2.13;;
76098;SDS011;64828;49.956;8.636;2023-04-01T00:27:31;4.25;;;2.00;;
76098;SDS011;64828;49.956;8.636;2023-04-01T00:27:47;4.38;;;1.38;;
76098;SDS011;64828;49.956;8.636;2023-04-01T00:28:04;4.00;;;1.25;;
76098;SDS011;64828;49.956;8.636;2023-04-01T00:28:19;4.03;;;1.38;;
76098;SDS011;64828;49.956;8.636;2023-04-01T00:28:35;4.75;;;1.60;;
76098;SDS011;64828;49.956;8.636;2023-04-01T00:28:52;4.63;;;1.42;;
76098;SDS011;64828;49.956;8.636;2023-04-01T00:29:07;4.17;;;1.43;;
76098;SDS011;64828;49.956;8.636;2023-04-01T00:29:23;3.53;;;1.35;;
76098;SDS011;64828;49.956;8.636;2023-04-01T00:29:43;3.90;;;1.17;;
76098;SDS011;64828;49.956;8.636;2023-04-01T00:30:01;4.35;;;1.73;;
76098;SDS011;64828;49.956;8.636;2023-04-01T00:30:18;5.13;;;1.88;;
76098;SDS011;64828;49.956;8.636;2023-04-01T00:30:35;5.97;;;1.83;;
76098;SDS011;64828;49.956;8.636;2023-04-01T00:30:51;5.38;;;1.90;;
76098;SDS011;64828;49.956;8.636;2023-04-01T00:31:08;3.00;;;1.42;;
76098;SDS011;64828;49.956;8.636;2023-04-01T00:31:25;2.92;;;1.20;;
76098;SDS011;64828;49.956;8.636;2023-04-01T00:31:41;4.30;;;1.58;;
76098;SDS011;64828;49.956;8.636;2023-04-01T00:31:57;4.50;;;1.58;;
76098;SDS011;64828;49.956;8.636;2023-04-01T00:32:13;3.77;;;1.00;;
76098;SDS011;64828;49.956;8.636;2023-04-01T00:32:29;4.25;;;1.20;;
76098;SDS011;64828;49.956;8.636;2023-04-01T00:32:46;5.38;;;1.67;;
76098;SDS011;64828;49.956;8.636;2023-04-01T00:33:01;5.47;;;1.87;;
76098;SDS011;64828;49.956;8.636;2023-04-01T00:33:17;5.45;;;1.63;;
76098;SDS011;64828;49.956;8.636;2023-04-01T00:33:33;4.18;;;1.05;;
76098;SDS011;64828;49.956;8.636;2023-04-01T00:33:48;2.70;;;1.00;;
76098;SDS011;64828;49.956;8.636;2023-04-01T00:34:04;3.22;;;1.30;;
76098;SDS011;64828;49.956;8.636;2023-04-01T00:34:19;3.67;;;1.30;;
76098;SDS011;64828;49.956;8.636;2023-04-01T00:34:36;4.10;;;1.40;;
76098;SDS011;64828;49.956;8.636;2023-04-01T00:34:52;4.80;;;1.60;;
76098;SDS011;64828;49.956;8.636;2023-04-01T00:35:08;4.28;;;1.38;;
76098;SDS011;64828;49.956;8.636;2023-04-01T00:35:25;3.83;;;1.87;;
76098;SDS011;64828;49.956;8.636;2023-04-01T00:35:40;4.00;;;1.90;;
76098;SDS011;64828;49.956;8.636;2023-04-01T00:36:04;4.72;;;1.38;;
76098;SDS011;64828;49.956;8.636;2023-04-01T00:36:30;2.42;;;1.02;;
76098;SDS011;64828;49.956;8.636;2023-04-01T00:36:45;3.03;;;1.20;;
76098;SDS011;64828;49.956;8.636;2023-04-01T00:37:01;3.53;;;1.10;;
76098;SDS011;64828;49.956;8.636;2023-04-01T00:37:16;3.60;;;1.10;;
76098;SDS011;64828;49.956;8.636;2023-04-01T00:37:34;3.58;;;0.93;;
76098;SDS011;64828;49.956;8.636;2023-04-01T00:37:51;3.55;;;1.05;;
76098;SDS011;64828;49.956;8.636;2023-04-01T00:38:07;2.85;;;1.02;;
76098;SDS011;64828;49.956;8.636;2023-04-01T00:38:23;2.67;;;1.00;;
76098;SDS011;64828;49.956;8.636;2023-04-01T00:38:39;5.57;;;2.00;;
76098;SDS011;64828;49.956;8.636;2023-04-01T00:38:57;6.10;;;2.10;;
76098;SDS011;64828;49.956;8.636;2023-04-01T00:39:14;3.33;;;1.25;;
76098;SDS011;64828;49.956;8.636;2023-04-01T00:39:30;3.20;;;1.30;;
76098;SDS011;64828;49.956;8.636;2023-04-01T00:39:47;3.95;;;1.30;;
76098;SDS011;64828;49.956;8.636;2023-04-01T00:40:04;3.50;;;1.02;;
76098;SDS011;64828;49.956;8.636;2023-04-01T00:40:23;2.90;;;1.35;;
76098;SDS011;64828;49.956;8.636;2023-04-01T00:40:46;3.28;;;1.10;;
76098;SDS011;64828;49.956;8.636;2023-04-01T00:41:02;2.97;;;1.00;;
76098;SDS011;64828;49.956;8.636;2023-04-01T00:41:19;3.40;;;1.17;;
76098;SDS011;64828;49.956;8.636;2023-04-01T00:41:36;3.30;;;1.13;;
76098;SDS011;64828;49.956;8.636;2023-04-01T00:41:51;2.60;;;1.00;;
76098;SDS011;64828;49.956;8.636;2023-04-01T00:42:08;2.60;;;1.00;;
76098;SDS011;64828;49.956;8.636;2023-04-01T00:42:25;3.47;;;0.80;;
76098;SDS011;64828;49.956;8.636;2023-04-01T00:42:41;4.33;;;0.80;;
76098;SDS011;64828;49.956;8.636;2023-04-01T00:42:56;2.85;;;0.90;;
76098;SDS011;64828;49.956;8.636;2023-04-01T00:43:14;2.95;;;1.15;;
76098;SDS011;64828;49.956;8.636;2023-04-01T00:43:34;4.53;;;1.38;;
76098;SDS011;64828;49.956;8.636;2023-04-01T00:43:50;4.97;;;1.38;;
76098;SDS011;64828;49.956;8.636;2023-04-01T00:44:20;5.15;;;1.20;;
76098;SDS011;64828;49.956;8.636;2023-04-01T00:44:38;2.55;;;0.90;;
76098;SDS011;64828;49.956;8.636;2023-04-01T00:44:54;3.97;;;1.08;;
76098;SDS011;64828;49.956;8.636;2023-04-01T00:45:23;5.30;;;1.33;;
76098;SDS011;64828;49.956;8.636;2023-04-01T00:45:53;3.28;;;1.10;;
76098;SDS011;64828;49.956;8.636;2023-04-01T00:46:08;2.85;;;1.40;;
76098;SDS011;64828;49.956;8.636;2023-04-01T00:46:24;3.08;;;1.20;;
76098;SDS011;64828;49.956;8.636;2023-04-01T00:46:40;4.23;;;1.30;;
76098;SDS011;64828;49.956;8.636;2023-04-01T00:46:55;3.83;;;1.40;;
76098;SDS011;64828;49.956;8.636;2023-04-01T00:47:11;4.43;;;1.10;;
76098;SDS011;64828;49.956;8.636;2023-04-01T00:47:27;4.17;;;0.93;;
76098;SDS011;64828;49.956;8.636;2023-04-01T00:47:42;3.20;;;1.00;;
76098;SDS011;64828;49.956;8.636;2023-04-01T00:47:59;3.13;;;0.97;;
76098;SDS011;64828;49.956;8.636;2023-04-01T00:48:50;4.00;;;1.27;;
76098;SDS011;64828;49.956;8.636;2023-04-01T00:49:10;3.35;;;1.08;;
76098;SDS011;64828;49.956;8.636;2023-04-01T00:49:33;3.53;;;1.13;;
76098;SDS011;64828;49.956;8.636;2023-04-01T00:49:58;3.70;;;1.10;;
76098;SDS011;64828;49.956;8.636;2023-04-01T00:50:14;3.33;;;1.10;;
76098;SDS011;64828;49.956;8.636;2023-04-01T00:50:30;3.00;;;1.00;;
76098;SDS011;64828;49.956;8.636;2023-04-01T00:50:54;3.03;;;0.90;;
76098;SDS011;64828;49.956;8.636;2023-04-01T00:51:22;3.67;;;1.17;;
76098;SDS011;64828;49.956;8.636;2023-04-01T00:51:42;4.13;;;1.25;;
76098;SDS011;64828;49.956;8.636;2023-04-01T00:52:03;4.25;;;1.00;;
76098;SDS011;64828;49.956;8.636;2023-04-01T00:52:22;4.80;;;1.33;;
76098;SDS011;64828;49.956;8.636;2023-04-01T00:52:40;5.15;;;1.80;;
76098;SDS011;64828;49.956;8.636;2023-04-01T00:52:57;5.50;;;1.83;;
76098;SDS011;64828;49.956;8.636;2023-04-01T00:53:16;4.75;;;1.67;;
76098;SDS011;64828;49.956;8.636;2023-04-01T00:53:36;3.72;;;1.70;;
76098;SDS011;64828;49.956;8.636;2023-04-01T00:53:58;3.22;;;1.60;;
76098;SDS011;64828;49.956;8.636;2023-04-01T00:54:18;4.00;;;1.80;;
76098;SDS011;64828;49.956;8.636;2023-04-01T00:54:37;4.25;;;1.65;;
76098;SDS011;64828;49.956;8.636;2023-04-01T00:54:57;4.50;;;1.65;;
76098;SDS011;64828;49.956;8.636;2023-04-01T00:55:18;4.95;;;1.63;;
76098;SDS011;64828;49.956;8.636;2023-04-01T00:55:39;4.85;;;1.85;;
76098;SDS011;64828;49.956;8.636;2023-04-01T00:56:04;6.20;;;1.90;;
76098;SDS011;64828;49.956;8.636;2023-04-01T00:56:36;4.95;;;1.67;;
76098;SDS011;64828;49.956;8.636;2023-04-01T00:57:08;3.88;;;1.70;;
76098;SDS011;64828;49.956;8.636;2023-04-01T00:57:31;3.97;;;1.15;;
76098;SDS011;64828;49.956;8.636;2023-04-01T00:57:52;4.45;;;1.38;;
76098;SDS011;64828;49.956;8.636;2023-04-01T00:58:13;4.28;;;1.33;;
76098;SDS011;64828;49.956;8.636;2023-04-01T00:58:35;4.47;;;1.50;;
76098;SDS011;64828;49.956;8.636;2023-04-01T00:58:59;6.35;;;1.98;;
76098;SDS011;64828;49.956;8.636;2023-04-01T00:59:26;4.45;;;1.67;;
76098;SDS011;64828;49.956;8.636;2023-04-01T00:59:49;4.60;;;1.70;;
76098;SDS011;64828;49.956;8.636;2023-04-01T01:00:10;5.60;;;1.83;;
76098;SDS011;64828;49.956;8.636;2023-04-01T01:00:29;6.65;;;2.10;;
76098;SDS011;64828;49.956;8.636;2023-04-01T01:00:46;6.05;;;1.85;;
76098;SDS011;64828;49.956;8.636;2023-04-01T01:01:05;4.13;;;1.58;;
76098;SDS011;64828;49.956;8.636;2023-04-01T01:01:23;5.18;;;2.05;;
76098;SDS011;64828;49.956;8.636;2023-04-01T01:01:41;4.22;;;1.90;;
76098;SDS011;64828;49.956;8.636;2023-04-01T01:01:57;4.28;;;1.73;;
76098;SDS011;64828;49.956;8.636;2023-04-01T01:02:14;5.40;;;1.80;;
76098;SDS011;64828;49.956;8.636;2023-04-01T01:02:31;4.82;;;1.90;;
76098;SDS011;64828;49.956;8.636;2023-04-01T01:02:49;3.28;;;1.50;;
76098;SDS011;64828;49.956;8.636;2023-04-01T01:03:06;3.25;;;1.40;;
76098;SDS011;64828;49.956;8.636;2023-04-01T01:03:22;4.22;;;1.98;;
76098;SDS011;64828;49.956;8.636;2023-04-01T01:03:37;4.47;;;2.17;;
76098;SDS011;64828;49.956;8.636;2023-04-01T01:03:53;5.35;;;1.85;;
76098;SDS011;64828;49.956;8.636;2023-04-01T01:04:23;7.35;;;2.00;;
76098;SDS011;64828;49.956;8.636;2023-04-01T01:04:46;4.55;;;1.88;;
76098;SDS011;64828;49.956;8.636;2023-04-01T01:05:02;4.38;;;1.90;;
76098;SDS011;64828;49.956;8.636;2023-04-01T01:05:18;4.57;;;1.83;;
76098;SDS011;64828;49.956;8.636;2023-04-01T01:06:54;4.32;;;1.60;;
76098;SDS011;64828;49.956;8.636;2023-04-01T01:08:15;4.78;;;1.42;;
76098;SDS011;64828;49.956;8.636;2023-04-01T01:08:47;4.70;;;1.60;;
76098;SDS011;64828;49.956;8.636;2023-04-01T01:09:26;4.10;;;1.38;;
76098;SDS011;64828;49.956;8.636;2023-04-01T01:10:53;4.65;;;1.85;;
76098;SDS011;64828;49.956;8.636;2023-04-01T01:11:08;5.55;;;2.03;;
76098;SDS011;64828;49.956;8.636;2023-04-01T01:11:40;6.03;;;2.00;;
76098;SDS011;64828;49.956;8.636;2023-04-01T01:12:05;5.88;;;1.85;;
76098;SDS011;64828;49.956;8.636;2023-04-01T01:12:48;6.00;;;1.90;;
76098;SDS011;64828;49.956;8.636;2023-04-01T01:13:26;4.35;;;1.20;;
76098;SDS011;64828;49.956;8.636;2023-04-01T01:13:58;3.85;;;1.40;;
76098;SDS011;64828;49.956;8.636;2023-04-01T01:15:03;7.15;;;2.25;;
76098;SDS011;64828;49.956;8.636;2023-04-01T01:15:28;6.18;;;1.77;;
76098;SDS011;64828;49.956;8.636;2023-04-01T01:16:06;4.80;;;1.88;;
76098;SDS011;64828;49.956;8.636;2023-04-01T01:16:36;7.13;;;1.80;;
76098;SDS011;64828;49.956;8.636;2023-04-01T01:24:34;4.78;;;1.10;;
76098;SDS011;64828;49.956;8.636;2023-04-01T01:25:11;2.40;;;0.80;;
76098;SDS011;64828;49.956;8.636;2023-04-01T01:26:24;1.90;;;0.80;;
76098;SDS011;64828;49.956;8.636;2023-04-01T01:26:50;2.20;;;0.85;;
76098;SDS011;64828;49.956;8.636;2023-04-01T01:27:18;3.88;;;1.00;;
76098;SDS011;64828;49.956;8.636;2023-04-01T01:27:37;4.35;;;0.95;;
76098;SDS011;64828;49.956;8.636;2023-04-01T01:28:14;3.50;;;0.98;;
76098;SDS011;64828;49.956;8.636;2023-04-01T01:31:13;2.80;;;1.02;;
76098;SDS011;64828;49.956;8.636;2023-04-01T01:31:45;3.88;;;1.50;;
76098;SDS011;64828;49.956;8.636;2023-04-01T01:33:16;5.68;;;1.10;;
76098;SDS011;64828;49.956;8.636;2023-04-01T01:34:47;5.18;;;1.30;;
76098;SDS011;64828;49.956;8.636;2023-04-01T01:35:36;2.60;;;0.90;;
76098;SDS011;64828;49.956;8.636;2023-04-01T01:36:04;3.85;;;1.02;;
76098;SDS011;64828;49.956;8.636;2023-04-01T01:36:28;3.75;;;0.88;;
76098;SDS011;64828;49.956;8.636;2023-04-01T01:36:52;4.15;;;1.10;;
76098;SDS011;64828;49.956;8.636;2023-04-01T01:37:16;2.58;;;0.90;;
76098;SDS011;64828;49.956;8.636;2023-04-01T01:37:35;4.38;;;1.15;;
76098;SDS011;64828;49.956;8.636;2023-04-01T01:37:59;5.72;;;1.30;;
76098;SDS011;64828;49.956;8.636;2023-04-01T01:38:26;2.92;;;1.30;;
76098;SDS011;64828;49.956;8.636;2023-04-01T01:38:48;4.47;;;1.55;;
76098;SDS011;64828;49.956;8.636;2023-04-01T01:39:06;5.20;;;1.23;;
76098;SDS011;64828;49.956;8.636;2023-04-01T01:39:25;5.65;;;1.10;;
76098;SDS011;64828;49.956;8.636;2023-04-01T01:39:48;3.40;;;0.95;;
76098;SDS011;64828;49.956;8.636;2023-04-01T01:40:11;3.70;;;0.90;;
76098;SDS011;64828;49.956;8.636;2023-04-01T01:40:31;2.20;;;0.70;;
76098;SDS011;64828;49.956;8.636;2023-04-01T01:40:49;1.90;;;0.70;;
76098;SDS011;64828;49.956;8.636;2023-04-01T01:41:08;2.33;;;0.73;;
76098;SDS011;64828;49.956;8.636;2023-04-01T01:41:28;2.33;;;0.80;;
76098;SDS011;64828;49.956;8.636;2023-04-01T01:41:48;3.30;;;0.82;;
76098;SDS011;64828;49.956;8.636;2023-04-01T01:42:05;3.53;;;0.82;;
76098;SDS011;64828;49.956;8.636;2023-04-01T01:42:26;3.58;;;1.00;;
76098;SDS011;64828;49.956;8.636;2023-04-01T01:42:47;3.40;;;1.10;;
76098;SDS011;64828;49.956;8.636;2023-04-01T01:43:10;3.83;;;1.00;;
76098;SDS011;64828;49.956;8.636;2023-04-01T01:43:36;2.20;;;0.70;;
76098;SDS011;64828;49.956;8.636;2023-04-01T01:43:56;3.67;;;0.80;;
76098;SDS011;64828;49.956;8.636;2023-04-01T01:44:16;3.17;;;0.93;;
76098;SDS011;64828;49.956;8.636;2023-04-01T01:44:34;2.97;;;1.00;;
76098;SDS011;64828;49.956;8.636;2023-04-01T01:44:53;2.83;;;1.05;;
76098;SDS011;64828;49.956;8.636;2023-04-01T01:45:14;3.35;;;1.10;;
76098;SDS011;64828;49.956;8.636;2023-04-01T01:45:35;4.10;;;1.10;;
76098;SDS011;64828;49.956;8.636;2023-04-01T01:46:00;3.05;;;0.98;;
76098;SDS011;64828;49.956;8.636;2023-04-01T01:46:23;3.67;;;1.10;;
76098;SDS011;64828;49.956;8.636;2023-04-01T01:46:42;3.72;;;1.10;;
76098;SDS011;64828;49.956;8.636;2023-04-01T01:47:00;2.78;;;1.05;;
76098;SDS011;64828;49.956;8.636;2023-04-01T01:47:16;2.80;;;1.00;;
76098;SDS011;64828;49.956;8.636;2023-04-01T01:47:36;3.83;;;1.15;;
76098;SDS011;64828;49.956;8.636;2023-04-01T01:47:53;3.42;;;1.25;;
76098;SDS011;64828;49.956;8.636;2023-04-01T01:48:11;3.80;;;1.17;;
76098;SDS011;64828;49.956;8.636;2023-04-01T01:48:27;4.43;;;1.10;;
76098;SDS011;64828;49.956;8.636;2023-04-01T01:48:45;4.40;;;1.00;;
76098;SDS011;64828;49.956;8.636;2023-04-01T01:49:02;3.70;;;0.80;;
76098;SDS011;64828;49.956;8.636;2023-04-01T01:49:21;3.05;;;1.00;;
76098;SDS011;64828;49.956;8.636;2023-04-01T01:49:39;3.88;;;1.05;;
76098;SDS011;64828;49.956;8.636;2023-04-01T01:49:58;2.70;;;0.88;;
76098;SDS011;64828;49.956;8.636;2023-04-01T01:50:16;3.05;;;0.80;;
76098;SDS011;64828;49.956;8.636;2023-04-01T01:50:34;3.13;;;0.88;;
76098;SDS011;64828;49.956;8.636;2023-04-01T01:50:51;3.25;;;1.02;;
76098;SDS011;64828;49.956;8.636;2023-04-01T01:51:08;2.83;;;1.02;;
76098;SDS011;64828;49.956;8.636;2023-04-01T01:51:24;4.85;;;1.27;;
76098;SDS011;64828;49.956;8.636;2023-04-01T01:51:42;5.13;;;1.48;;
76098;SDS011;64828;49.956;8.636;2023-04-01T01:51:58;4.47;;;1.42;;
76098;SDS011;64828;49.956;8.636;2023-04-01T01:52:14;3.67;;;1.23;;
76098;SDS011;64828;49.956;8.636;2023-04-01T01:52:32;4.47;;;1.25;;
76098;SDS011;64828;49.956;8.636;2023-04-01T01:52:48;3.72;;;1.13;;
76098;SDS011;64828;49.956;8.636;2023-04-01T01:53:05;2.97;;;0.90;;
76098;SDS011;64828;49.956;8.636;2023-04-01T01:53:25;4.43;;;1.00;;
76098;SDS011;64828;49.956;8.636;2023-04-01T01:53:40;4.30;;;1.00;;
76098;SDS011;64828;49.956;8.636;2023-04-01T01:53:56;4.38;;;0.90;;
76098;SDS011;64828;49.956;8.636;2023-04-01T01:54:13;5.30;;;0.87;;
76098;SDS011;64828;49.956;8.636;2023-04-01T01:54:31;3.65;;;0.70;;
76098;SDS011;64828;49.956;8.636;2023-04-01T01:54:53;2.92;;;0.70;;
76098;SDS011;64828;49.956;8.636;2023-04-01T01:55:25;5.35;;;1.00;;
76098;SDS011;64828;49.956;8.636;2023-04-01T01:55:46;2.63;;;0.70;;
76098;SDS011;64828;49.956;8.636;2023-04-01T01:56:03;3.13;;;0.80;;
76098;SDS011;64828;49.956;8.636;2023-04-01T01:56:20;2.55;;;0.70;;
76098;SDS011;64828;49.956;8.636;2023-04-01T01:56:42;1.85;;;0.60;;
76098;SDS011;64828;49.956;8.636;2023-04-01T01:57:05;3.50;;;0.80;;
76098;SDS011;64828;49.956;8.636;2023-04-01T01:57:31;4.50;;;0.88;;
76098;SDS011;64828;49.956;8.636;2023-04-01T01:57:52;4.03;;;0.95;;
76098;SDS011;64828;49.956;8.636;2023-04-01T01:58:17;3.00;;;1.00;;
76098;SDS011;64828;49.956;8.636;2023-04-01T01:59:00;3.30;;;0.90;;
76098;SDS011;64828;49.956;8.636;2023-04-01T01:59:22;3.40;;;0.80;;
76098;SDS011;64828;49.956;8.636;2023-04-01T01:59:40;4.80;;;1.08;;
76098;SDS011;64828;49.956;8.636;2023-04-01T02:00:02;5.93;;;1.00;;
76098;SDS011;64828;49.956;8.636;2023-04-01T02:00:28;3.35;;;0.90;;
76098;SDS011;64828;49.956;8.636;2023-04-01T02:00:55;2.35;;;0.70;;
76098;SDS011;64828;49.956;8.636;2023-04-01T02:01:17;3.90;;;0.73;;
76098;SDS011;64828;49.956;8.636;2023-04-01T02:01:49;3.47;;;0.95;;
76098;SDS011;64828;49.956;8.636;2023-04-01T02:02:10;3.10;;;0.82;;
76098;SDS011;64828;49.956;8.636;2023-04-01T02:02:29;3.10;;;0.88;;
76098;SDS011;64828;49.956;8.636;2023-04-01T02:02:47;2.15;;;0.80;;
76098;SDS011;64828;49.956;8.636;2023-04-01T02:03:05;2.35;;;0.80;;
76098;SDS011;64828;49.956;8.636;2023-04-01T02:03:21;2.50;;;0.60;;
76098;SDS011;64828;49.956;8.636;2023-04-01T02:03:40;2.65;;;0.70;;
76098;SDS011;64828;49.956;8.636;2023-04-01T02:03:59;4.20;;;0.88;;
76098;SDS011;64828;49.956;8.636;2023-04-01T02:04:15;4.18;;;1.02;;
76098;SDS011;64828;49.956;8.636;2023-04-01T02:04:34;3.15;;;1.15;;
76098;SDS011;64828;49.956;8.636;2023-04-01T02:04:54;3.63;;;0.90;;
76098;SDS011;64828;49.956;8.636;2023-04-01T02:05:10;2.92;;;0.73;;
76098;SDS011;64828;49.956;8.636;2023-04-01T02:05:32;3.78;;;1.00;;
76098;SDS011;64828;49.956;8.636;2023-04-01T02:05:48;2.60;;;0.90;;
76098;SDS011;64828;49.956;8.636;2023-04-01T02:06:08;1.30;;;0.60;;
76098;SDS011;64828;49.956;8.636;2023-04-01T02:06:29;2.25;;;0.70;;
76098;SDS011;64828;49.956;8.636;2023-04-01T02:06:56;2.00;;;0.90;;
76098;SDS011;64828;49.956;8.636;2023-04-01T02:07:27;2.88;;;0.73;;
76098;SDS011;64828;49.956;8.636;2023-04-01T02:07:49;4.05;;;0.70;;
76098;SDS011;64828;49.956;8.636;2023-04-01T02:08:16;2.15;;;0.60;;
76098;SDS011;64828;49.956;8.636;2023-04-01T02:08:45;2.47;;;0.80;;
76098;SDS011;64828;49.956;8.636;2023-04-01T02:09:08;2.78;;;0.75;;
76098;SDS011;64828;49.956;8.636;2023-04-01T02:09:26;3.88;;;1.00;;
76098;SDS011;64828;49.956;8.636;2023-04-01T02:09:43;3.28;;;0.93;;
76098;SDS011;64828;49.956;8.636;2023-04-01T02:09:59;2.78;;;0.80;;
76098;SDS011;64828;49.956;8.636;2023-04-01T02:10:16;3.67;;;0.90;;
76098;SDS011;64828;49.956;8.636;2023-04-01T02:10:35;3.25;;;0.80;;
76098;SDS011;64828;49.956;8.636;2023-04-01T02:11:05;3.25;;;0.70;;
76098;SDS011;64828;49.956;8.636;2023-04-01T02:11:36;3.17;;;0.60;;
76098;SDS011;64828;49.956;8.636;2023-04-01T02:12:06;4.03;;;0.75;;
76098;SDS011;64828;49.956;8.636;2023-04-01T02:12:28;3.25;;;0.80;;
76098;SDS011;64828;49.956;8.636;2023-04-01T02:12:45;3.10;;;0.85;;
76098;SDS011;64828;49.956;8.636;2023-04-01T02:13:07;3.65;;;0.90;;
76098;SDS011;64828;49.956;8.636;2023-04-01T02:14:29;2.08;;;0.82;;
76098;SDS011;64828;49.956;8.636;2023-04-01T02:15:11;3.97;;;0.80;;
76098;SDS011;64828;49.956;8.636;2023-04-01T02:15:31;3.50;;;0.70;;
76098;SDS011;64828;49.956;8.636;2023-04-01T02:15:57;2.53;;;0.65;;
76098;SDS011;64828;49.956;8.636;2023-04-01T02:16:23;3.90;;;0.90;;